sensor_id;sensor_type;location;lat;lon;timestamp;P1;durP1;ratioP1;P2;durP2;ratioP2
84982;SDS011;75295;45.426;9.696;2024-01-15T00:00:55;160.25;;;74.20;;
84982;SDS011;75295;45.426;9.696;2024-01-15T00:03:21;140.13;;;72.13;;
84982;SDS011;75295;45.426;9.696;2024-01-15T00:05:48;151.90;;;76.47;;
84982;SDS011;75295;45.426;9.696;2024-01-15T00:08:15;183.20;;;85.07;;
84982;SDS011;75295;45.426;9.696;2024-01-15T00:10:42;159.57;;;83.38;;
84982;SDS011;75295;45.426;9.696;2024-01-15T00:13:08;145.43;;;77.57;;
84982;SDS011;75295;45.426;9.696;2024-01-15T00:15:35;129.65;;;70.88;;
84982;SDS011;75295;45.426;9.696;2024-01-15T00:18:02;142.20;;;76.13;;
84982;SDS011;75295;45.426;9.696;2024-01-15T00:20:29;166.68;;;81.80;;
84982;SDS011;75295;45.426;9.696;2024-01-15T00:22:55;184.88;;;88.55;;
84982;SDS011;75295;45.426;9.696;2024-01-15T00:25:22;170.25;;;84.32;;
84982;SDS011;75295;45.426;9.696;2024-01-15T00:27:49;157.30;;;80.05;;
84982;SDS011;75295;45.426;9.696;2024-01-15T00:30:16;131.90;;;72.28;;
84982;SDS011;75295;45.426;9.696;2024-01-15T00:32:43;117.22;;;64.65;;
84982;SDS011;75295;45.426;9.696;2024-01-15T00:35:09;140.98;;;71.82;;
84982;SDS011;75295;45.426;9.696;2024-01-15T00:37:36;141.82;;;69.22;;
84982;SDS011;75295;45.426;9.696;2024-01-15T00:40:04;123.70;;;66.82;;
84982;SDS011;75295;45.426;9.696;2024-01-15T00:42:33;119.70;;;65.22;;
84982;SDS011;75295;45.426;9.696;2024-01-15T00:45:00;112.97;;;63.45;;
84982;SDS011;75295;45.426;9.696;2024-01-15T00:47:27;120.97;;;65.32;;
84982;SDS011;75295;45.426;9.696;2024-01-15T00:49:53;142.85;;;71.57;;
84982;SDS011;75295;45.426;9.696;2024-01-15T00:52:20;129.45;;;69.07;;
84982;SDS011;75295;45.426;9.696;2024-01-15T00:54:47;136.25;;;72.63;;
84982;SDS011;75295;45.426;9.696;2024-01-15T00:57:14;122.68;;;68.93;;
84982;SDS011;75295;45.426;9.696;2024-01-15T00:59:40;116.28;;;65.40;;
84982;SDS011;75295;45.426;9.696;2024-01-15T01:02:07;124.28;;;65.95;;
84982;SDS011;75295;45.426;9.696;2024-01-15T01:04:34;122.32;;;68.47;;
84982;SDS011;75295;45.426;9.696;2024-01-15T01:07:01;117.60;;;64.07;;
84982;SDS011;75295;45.426;9.696;2024-01-15T01:09:28;116.47;;;63.70;;
84982;SDS011;75295;45.426;9.696;2024-01-15T01:11:56;112.55;;;64.47;;
84982;SDS011;75295;45.426;9.696;2024-01-15T01:14:23;100.03;;;59.78;;
84982;SDS011;75295;45.426;9.696;2024-01-15T01:16:49;108.30;;;63.65;;
84982;SDS011;75295;45.426;9.696;2024-01-15T01:19:16;112.57;;;63.55;;
84982;SDS011;75295;45.426;9.696;2024-01-15T01:21:43;109.28;;;61.92;;
84982;SDS011;75295;45.426;9.696;2024-01-15T01:24:09;108.63;;;63.15;;
84982;SDS011;75295;45.426;9.696;2024-01-15T01:26:36;107.55;;;62.95;;
84982;SDS011;75295;45.426;9.696;2024-01-15T01:29:03;111.65;;;63.67;;
84982;SDS011;75295;45.426;9.696;2024-01-15T01:31:30;118.20;;;66.32;;
84982;SDS011;75295;45.426;9.696;2024-01-15T01:33:56;114.75;;;65.28;;
84982;SDS011;75295;45.426;9.696;2024-01-15T01:36:23;123.85;;;67.78;;
84982;SDS011;75295;45.426;9.696;2024-01-15T01:38:50;137.38;;;69.75;;
84982;SDS011;75295;45.426;9.696;2024-01-15T01:41:17;132.05;;;69.28;;
84982;SDS011;75295;45.426;9.696;2024-01-15T01:43:43;114.32;;;64.65;;
84982;SDS011;75295;45.426;9.696;2024-01-15T01:46:10;120.07;;;68.00;;
84982;SDS011;75295;45.426;9.696;2024-01-15T01:48:37;126.72;;;70.72;;
84982;SDS011;75295;45.426;9.696;2024-01-15T01:51:04;142.60;;;76.32;;
84982;SDS011;75295;45.426;9.696;2024-01-15T01:53:32;129.73;;;70.68;;
84982;SDS011;75295;45.426;9.696;2024-01-15T01:56:01;142.75;;;78.10;;
84982;SDS011;75295;45.426;9.696;2024-01-15T01:58:30;152.82;;;78.80;;
84982;SDS011;75295;45.426;9.696;2024-01-15T02:00:59;131.90;;;73.97;;
84982;SDS011;75295;45.426;9.696;2024-01-15T02:03:30;134.13;;;72.68;;
84982;SDS011;75295;45.426;9.696;2024-01-15T02:05:57;139.25;;;76.72;;
84982;SDS011;75295;45.426;9.696;2024-01-15T02:08:26;135.65;;;73.03;;
84982;SDS011;75295;45.426;9.696;2024-01-15T02:10:53;123.18;;;67.43;;
84982;SDS011;75295;45.426;9.696;2024-01-15T02:13:20;120.97;;;67.07;;
84982;SDS011;75295;45.426;9.696;2024-01-15T02:15:46;132.18;;;72.18;;
84982;SDS011;75295;45.426;9.696;2024-01-15T02:18:13;140.52;;;76.32;;
84982;SDS011;75295;45.426;9.696;2024-01-15T02:20:40;132.20;;;70.50;;
84982;SDS011;75295;45.426;9.696;2024-01-15T02:23:11;116.22;;;66.60;;
84982;SDS011;75295;45.426;9.696;2024-01-15T02:25:40;108.18;;;65.07;;
84982;SDS011;75295;45.426;9.696;2024-01-15T02:28:12;107.22;;;63.17;;
84982;SDS011;75295;45.426;9.696;2024-01-15T02:30:42;109.47;;;62.28;;
84982;SDS011;75295;45.426;9.696;2024-01-15T02:33:10;110.78;;;58.28;;
84982;SDS011;75295;45.426;9.696;2024-01-15T02:35:38;104.20;;;54.15;;
84982;SDS011;75295;45.426;9.696;2024-01-15T02:38:05;116.28;;;61.20;;
84982;SDS011;75295;45.426;9.696;2024-01-15T02:40:33;131.82;;;63.70;;
84982;SDS011;75295;45.426;9.696;2024-01-15T02:43:00;135.40;;;72.63;;
84982;SDS011;75295;45.426;9.696;2024-01-15T02:45:27;138.68;;;72.38;;
84982;SDS011;75295;45.426;9.696;2024-01-15T02:47:54;145.95;;;77.50;;
84982;SDS011;75295;45.426;9.696;2024-01-15T02:50:21;151.68;;;77.47;;
84982;SDS011;75295;45.426;9.696;2024-01-15T02:52:48;156.35;;;79.88;;
84982;SDS011;75295;45.426;9.696;2024-01-15T02:55:15;146.95;;;77.97;;
84982;SDS011;75295;45.426;9.696;2024-01-15T02:57:42;147.80;;;76.00;;
84982;SDS011;75295;45.426;9.696;2024-01-15T03:00:08;156.55;;;81.93;;
84982;SDS011;75295;45.426;9.696;2024-01-15T03:02:36;157.13;;;81.20;;
84982;SDS011;75295;45.426;9.696;2024-01-15T03:05:09;130.77;;;69.13;;
84982;SDS011;75295;45.426;9.696;2024-01-15T03:07:36;128.60;;;75.45;;
84982;SDS011;75295;45.426;9.696;2024-01-15T03:10:04;140.85;;;75.47;;
84982;SDS011;75295;45.426;9.696;2024-01-15T03:12:32;139.15;;;72.72;;
84982;SDS011;75295;45.426;9.696;2024-01-15T03:14:59;140.25;;;73.90;;
84982;SDS011;75295;45.426;9.696;2024-01-15T03:17:25;139.07;;;74.13;;
84982;SDS011;75295;45.426;9.696;2024-01-15T03:19:52;142.98;;;76.50;;
84982;SDS011;75295;45.426;9.696;2024-01-15T03:22:19;156.45;;;82.75;;
84982;SDS011;75295;45.426;9.696;2024-01-15T03:24:45;160.02;;;82.55;;
84982;SDS011;75295;45.426;9.696;2024-01-15T03:27:12;182.10;;;85.93;;
84982;SDS011;75295;45.426;9.696;2024-01-15T03:29:39;173.88;;;83.22;;
84982;SDS011;75295;45.426;9.696;2024-01-15T03:32:06;144.85;;;77.93;;
84982;SDS011;75295;45.426;9.696;2024-01-15T03:34:33;141.70;;;73.57;;
84982;SDS011;75295;45.426;9.696;2024-01-15T03:37:00;122.45;;;65.30;;
84982;SDS011;75295;45.426;9.696;2024-01-15T03:39:27;124.10;;;67.82;;
84982;SDS011;75295;45.426;9.696;2024-01-15T03:41:54;125.55;;;70.10;;
84982;SDS011;75295;45.426;9.696;2024-01-15T03:44:21;118.70;;;67.55;;
84982;SDS011;75295;45.426;9.696;2024-01-15T03:46:48;132.48;;;72.47;;
84982;SDS011;75295;45.426;9.696;2024-01-15T03:49:14;149.57;;;80.65;;
84982;SDS011;75295;45.426;9.696;2024-01-15T03:51:41;133.85;;;77.00;;
84982;SDS011;75295;45.426;9.696;2024-01-15T03:54:08;121.72;;;66.80;;
84982;SDS011;75295;45.426;9.696;2024-01-15T03:56:34;115.88;;;61.85;;
84982;SDS011;75295;45.426;9.696;2024-01-15T03:59:01;126.60;;;71.28;;
84982;SDS011;75295;45.426;9.696;2024-01-15T04:01:28;138.38;;;75.25;;
84982;SDS011;75295;45.426;9.696;2024-01-15T04:03:55;133.85;;;70.45;;
84982;SDS011;75295;45.426;9.696;2024-01-15T04:06:22;124.25;;;71.05;;
84982;SDS011;75295;45.426;9.696;2024-01-15T04:08:50;131.68;;;71.40;;
84982;SDS011;75295;45.426;9.696;2024-01-15T04:11:16;134.15;;;72.05;;
84982;SDS011;75295;45.426;9.696;2024-01-15T04:13:43;128.98;;;70.15;;
84982;SDS011;75295;45.426;9.696;2024-01-15T04:16:10;128.20;;;71.88;;
84982;SDS011;75295;45.426;9.696;2024-01-15T04:18:37;133.52;;;74.72;;
84982;SDS011;75295;45.426;9.696;2024-01-15T04:21:04;123.50;;;67.63;;
84982;SDS011;75295;45.426;9.696;2024-01-15T04:23:32;119.18;;;67.10;;
84982;SDS011;75295;45.426;9.696;2024-01-15T04:25:59;132.07;;;72.00;;
84982;SDS011;75295;45.426;9.696;2024-01-15T04:28:26;131.07;;;72.70;;
84982;SDS011;75295;45.426;9.696;2024-01-15T04:30:53;141.20;;;80.40;;
84982;SDS011;75295;45.426;9.696;2024-01-15T04:33:20;126.40;;;72.78;;
84982;SDS011;75295;45.426;9.696;2024-01-15T04:35:47;128.30;;;70.03;;
84982;SDS011;75295;45.426;9.696;2024-01-15T04:38:13;127.70;;;72.72;;
84982;SDS011;75295;45.426;9.696;2024-01-15T04:40:41;137.80;;;74.18;;
84982;SDS011;75295;45.426;9.696;2024-01-15T04:43:08;122.70;;;67.60;;
84982;SDS011;75295;45.426;9.696;2024-01-15T04:45:35;148.40;;;78.60;;
84982;SDS011;75295;45.426;9.696;2024-01-15T04:48:03;151.27;;;78.93;;
84982;SDS011;75295;45.426;9.696;2024-01-15T04:50:31;144.15;;;79.35;;
84982;SDS011;75295;45.426;9.696;2024-01-15T04:52:58;130.68;;;73.07;;
84982;SDS011;75295;45.426;9.696;2024-01-15T04:55:24;144.27;;;77.93;;
84982;SDS011;75295;45.426;9.696;2024-01-15T04:57:51;149.13;;;78.50;;
84982;SDS011;75295;45.426;9.696;2024-01-15T05:00:18;132.07;;;72.32;;
84982;SDS011;75295;45.426;9.696;2024-01-15T05:02:45;131.88;;;73.72;;
84982;SDS011;75295;45.426;9.696;2024-01-15T05:05:12;124.95;;;68.68;;
84982;SDS011;75295;45.426;9.696;2024-01-15T05:07:38;126.03;;;71.72;;
84982;SDS011;75295;45.426;9.696;2024-01-15T05:10:05;129.38;;;70.18;;
84982;SDS011;75295;45.426;9.696;2024-01-15T05:12:34;134.80;;;75.75;;
84982;SDS011;75295;45.426;9.696;2024-01-15T05:15:01;132.43;;;70.97;;
84982;SDS011;75295;45.426;9.696;2024-01-15T05:17:28;126.97;;;71.60;;
84982;SDS011;75295;45.426;9.696;2024-01-15T05:19:55;126.15;;;68.43;;
84982;SDS011;75295;45.426;9.696;2024-01-15T05:22:22;129.77;;;69.38;;
84982;SDS011;75295;45.426;9.696;2024-01-15T05:24:50;124.72;;;66.20;;
84982;SDS011;75295;45.426;9.696;2024-01-15T05:27:17;140.02;;;69.55;;
84982;SDS011;75295;45.426;9.696;2024-01-15T05:29:44;140.15;;;71.03;;
84982;SDS011;75295;45.426;9.696;2024-01-15T05:32:11;150.80;;;75.28;;
84982;SDS011;75295;45.426;9.696;2024-01-15T05:34:38;160.70;;;72.80;;
84982;SDS011;75295;45.426;9.696;2024-01-15T05:37:04;156.45;;;74.28;;
84982;SDS011;75295;45.426;9.696;2024-01-15T05:39:31;132.52;;;66.15;;
84982;SDS011;75295;45.426;9.696;2024-01-15T05:41:58;226.02;;;85.97;;
84982;SDS011;75295;45.426;9.696;2024-01-15T05:44:26;311.30;;;89.43;;
84982;SDS011;75295;45.426;9.696;2024-01-15T05:46:53;244.80;;;77.82;;
84982;SDS011;75295;45.426;9.696;2024-01-15T05:49:20;200.32;;;72.50;;
84982;SDS011;75295;45.426;9.696;2024-01-15T05:51:47;221.18;;;85.07;;
84982;SDS011;75295;45.426;9.696;2024-01-15T05:54:14;165.95;;;78.85;;
84982;SDS011;75295;45.426;9.696;2024-01-15T05:56:41;184.38;;;79.00;;
84982;SDS011;75295;45.426;9.696;2024-01-15T05:59:08;189.15;;;80.00;;
84982;SDS011;75295;45.426;9.696;2024-01-15T06:01:35;198.32;;;81.03;;
84982;SDS011;75295;45.426;9.696;2024-01-15T06:04:01;140.77;;;74.47;;
84982;SDS011;75295;45.426;9.696;2024-01-15T06:06:28;145.68;;;76.45;;
84982;SDS011;75295;45.426;9.696;2024-01-15T06:08:55;131.27;;;68.68;;
84982;SDS011;75295;45.426;9.696;2024-01-15T06:11:29;143.98;;;76.68;;
84982;SDS011;75295;45.426;9.696;2024-01-15T06:13:57;143.57;;;76.20;;
84982;SDS011;75295;45.426;9.696;2024-01-15T06:16:23;138.00;;;75.93;;
84982;SDS011;75295;45.426;9.696;2024-01-15T06:18:50;152.07;;;81.80;;
84982;SDS011;75295;45.426;9.696;2024-01-15T06:21:18;149.85;;;79.80;;
84982;SDS011;75295;45.426;9.696;2024-01-15T06:23:44;163.95;;;82.80;;
84982;SDS011;75295;45.426;9.696;2024-01-15T06:26:11;159.63;;;82.03;;
84982;SDS011;75295;45.426;9.696;2024-01-15T06:28:38;139.73;;;69.00;;
84982;SDS011;75295;45.426;9.696;2024-01-15T06:31:06;158.70;;;81.47;;
84982;SDS011;75295;45.426;9.696;2024-01-15T06:33:34;160.20;;;81.05;;
84982;SDS011;75295;45.426;9.696;2024-01-15T06:36:00;141.32;;;73.88;;
84982;SDS011;75295;45.426;9.696;2024-01-15T06:38:27;146.55;;;78.15;;
84982;SDS011;75295;45.426;9.696;2024-01-15T06:40:53;162.68;;;84.55;;
84982;SDS011;75295;45.426;9.696;2024-01-15T06:43:20;153.32;;;81.53;;
84982;SDS011;75295;45.426;9.696;2024-01-15T06:45:47;145.13;;;75.70;;
84982;SDS011;75295;45.426;9.696;2024-01-15T06:48:14;144.43;;;77.72;;
84982;SDS011;75295;45.426;9.696;2024-01-15T06:50:45;153.43;;;80.63;;
84982;SDS011;75295;45.426;9.696;2024-01-15T06:53:12;147.18;;;77.95;;
84982;SDS011;75295;45.426;9.696;2024-01-15T06:55:39;140.63;;;76.43;;
84982;SDS011;75295;45.426;9.696;2024-01-15T06:58:05;160.95;;;83.28;;
84982;SDS011;75295;45.426;9.696;2024-01-15T07:00:32;164.30;;;82.55;;
84982;SDS011;75295;45.426;9.696;2024-01-15T07:02:59;154.52;;;76.53;;
84982;SDS011;75295;45.426;9.696;2024-01-15T07:05:26;157.23;;;83.63;;
84982;SDS011;75295;45.426;9.696;2024-01-15T07:07:54;155.75;;;82.07;;
84982;SDS011;75295;45.426;9.696;2024-01-15T07:10:21;160.60;;;83.13;;
84982;SDS011;75295;45.426;9.696;2024-01-15T07:12:48;149.95;;;77.57;;
84982;SDS011;75295;45.426;9.696;2024-01-15T07:15:15;143.85;;;76.90;;
84982;SDS011;75295;45.426;9.696;2024-01-15T07:17:41;151.50;;;80.13;;
84982;SDS011;75295;45.426;9.696;2024-01-15T07:20:09;172.80;;;87.45;;
84982;SDS011;75295;45.426;9.696;2024-01-15T07:22:36;172.35;;;86.50;;
84982;SDS011;75295;45.426;9.696;2024-01-15T07:25:03;164.07;;;83.28;;
84982;SDS011;75295;45.426;9.696;2024-01-15T07:27:31;167.10;;;84.15;;
84982;SDS011;75295;45.426;9.696;2024-01-15T07:29:58;141.57;;;75.07;;
84982;SDS011;75295;45.426;9.696;2024-01-15T07:32:25;140.43;;;77.07;;
84982;SDS011;75295;45.426;9.696;2024-01-15T07:34:51;156.35;;;80.00;;
84982;SDS011;75295;45.426;9.696;2024-01-15T07:37:19;146.85;;;80.72;;
84982;SDS011;75295;45.426;9.696;2024-01-15T07:39:45;142.77;;;77.18;;
84982;SDS011;75295;45.426;9.696;2024-01-15T07:42:12;169.57;;;85.95;;
84982;SDS011;75295;45.426;9.696;2024-01-15T07:44:39;137.82;;;78.47;;
84982;SDS011;75295;45.426;9.696;2024-01-15T07:47:07;135.73;;;75.65;;
84982;SDS011;75295;45.426;9.696;2024-01-15T07:49:35;163.65;;;82.53;;
84982;SDS011;75295;45.426;9.696;2024-01-15T07:52:02;137.70;;;73.18;;
84982;SDS011;75295;45.426;9.696;2024-01-15T07:54:31;141.98;;;73.05;;
84982;SDS011;75295;45.426;9.696;2024-01-15T07:57:01;173.48;;;78.60;;
84982;SDS011;75295;45.426;9.696;2024-01-15T07:59:31;264.23;;;81.35;;
84982;SDS011;75295;45.426;9.696;2024-01-15T08:01:58;318.23;;;76.35;;
84982;SDS011;75295;45.426;9.696;2024-01-15T08:04:25;350.58;;;85.55;;
84982;SDS011;75295;45.426;9.696;2024-01-15T08:06:52;335.65;;;83.90;;
84982;SDS011;75295;45.426;9.696;2024-01-15T08:09:19;390.67;;;92.70;;
84982;SDS011;75295;45.426;9.696;2024-01-15T08:11:47;321.10;;;75.72;;
84982;SDS011;75295;45.426;9.696;2024-01-15T08:14:15;322.55;;;83.05;;
84982;SDS011;75295;45.426;9.696;2024-01-15T08:16:41;323.33;;;82.20;;
84982;SDS011;75295;45.426;9.696;2024-01-15T08:19:09;327.58;;;86.85;;
84982;SDS011;75295;45.426;9.696;2024-01-15T08:21:36;363.73;;;87.65;;
84982;SDS011;75295;45.426;9.696;2024-01-15T08:24:03;275.05;;;73.13;;
84982;SDS011;75295;45.426;9.696;2024-01-15T08:26:31;364.27;;;75.35;;
84982;SDS011;75295;45.426;9.696;2024-01-15T08:28:58;291.13;;;80.78;;
84982;SDS011;75295;45.426;9.696;2024-01-15T08:31:25;417.20;;;82.55;;
84982;SDS011;75295;45.426;9.696;2024-01-15T08:33:52;313.30;;;82.30;;
84982;SDS011;75295;45.426;9.696;2024-01-15T08:36:20;232.13;;;80.25;;
84982;SDS011;75295;45.426;9.696;2024-01-15T08:38:47;293.52;;;76.53;;
84982;SDS011;75295;45.426;9.696;2024-01-15T08:41:14;246.15;;;83.07;;
84982;SDS011;75295;45.426;9.696;2024-01-15T08:43:41;303.35;;;84.75;;
84982;SDS011;75295;45.426;9.696;2024-01-15T08:46:07;323.50;;;72.43;;
84982;SDS011;75295;45.426;9.696;2024-01-15T08:48:34;308.38;;;87.57;;
84982;SDS011;75295;45.426;9.696;2024-01-15T08:51:01;202.75;;;84.97;;
84982;SDS011;75295;45.426;9.696;2024-01-15T08:53:29;297.42;;;87.22;;
84982;SDS011;75295;45.426;9.696;2024-01-15T08:55:55;280.30;;;82.35;;
84982;SDS011;75295;45.426;9.696;2024-01-15T08:58:23;256.48;;;73.40;;
84982;SDS011;75295;45.426;9.696;2024-01-15T09:00:51;300.33;;;75.57;;
84982;SDS011;75295;45.426;9.696;2024-01-15T09:03:17;238.75;;;76.70;;
84982;SDS011;75295;45.426;9.696;2024-01-15T09:05:44;249.15;;;74.70;;
84982;SDS011;75295;45.426;9.696;2024-01-15T09:08:11;228.82;;;83.25;;
84982;SDS011;75295;45.426;9.696;2024-01-15T09:10:38;258.83;;;76.40;;
84982;SDS011;75295;45.426;9.696;2024-01-15T09:13:05;226.98;;;70.43;;
84982;SDS011;75295;45.426;9.696;2024-01-15T09:15:32;262.17;;;81.47;;
84982;SDS011;75295;45.426;9.696;2024-01-15T09:17:59;237.68;;;73.80;;
84982;SDS011;75295;45.426;9.696;2024-01-15T09:20:28;233.20;;;73.65;;
84982;SDS011;75295;45.426;9.696;2024-01-15T09:22:55;245.10;;;77.13;;
84982;SDS011;75295;45.426;9.696;2024-01-15T09:25:22;203.48;;;74.35;;
84982;SDS011;75295;45.426;9.696;2024-01-15T09:27:48;204.32;;;76.30;;
84982;SDS011;75295;45.426;9.696;2024-01-15T09:30:15;155.40;;;78.03;;
84982;SDS011;75295;45.426;9.696;2024-01-15T09:32:42;151.25;;;69.60;;
84982;SDS011;75295;45.426;9.696;2024-01-15T09:35:09;170.98;;;75.70;;
84982;SDS011;75295;45.426;9.696;2024-01-15T09:37:36;205.80;;;76.30;;
84982;SDS011;75295;45.426;9.696;2024-01-15T09:40:04;156.40;;;59.78;;
84982;SDS011;75295;45.426;9.696;2024-01-15T09:42:34;186.30;;;72.13;;
84982;SDS011;75295;45.426;9.696;2024-01-15T09:45:02;187.05;;;79.88;;
84982;SDS011;75295;45.426;9.696;2024-01-15T09:47:29;146.57;;;64.63;;
84982;SDS011;75295;45.426;9.696;2024-01-15T09:49:56;145.38;;;69.05;;
84982;SDS011;75295;45.426;9.696;2024-01-15T09:52:24;159.98;;;69.15;;
84982;SDS011;75295;45.426;9.696;2024-01-15T09:54:51;167.23;;;74.90;;
84982;SDS011;75295;45.426;9.696;2024-01-15T09:57:18;169.07;;;73.85;;
84982;SDS011;75295;45.426;9.696;2024-01-15T09:59:46;182.02;;;70.80;;
84982;SDS011;75295;45.426;9.696;2024-01-15T10:02:14;132.38;;;70.07;;
84982;SDS011;75295;45.426;9.696;2024-01-15T10:04:44;168.13;;;68.70;;
84982;SDS011;75295;45.426;9.696;2024-01-15T10:07:14;143.48;;;72.80;;
84982;SDS011;75295;45.426;9.696;2024-01-15T10:09:46;178.35;;;79.28;;
84982;SDS011;75295;45.426;9.696;2024-01-15T10:12:13;141.13;;;72.57;;
84982;SDS011;75295;45.426;9.696;2024-01-15T10:14:40;147.77;;;72.72;;
84982;SDS011;75295;45.426;9.696;2024-01-15T10:17:15;141.07;;;68.80;;
84982;SDS011;75295;45.426;9.696;2024-01-15T10:19:44;145.43;;;70.63;;
84982;SDS011;75295;45.426;9.696;2024-01-15T10:22:13;156.77;;;75.47;;
84982;SDS011;75295;45.426;9.696;2024-01-15T10:24:41;222.02;;;83.43;;
84982;SDS011;75295;45.426;9.696;2024-01-15T10:27:09;192.68;;;74.88;;
84982;SDS011;75295;45.426;9.696;2024-01-15T10:29:37;138.88;;;73.65;;
84982;SDS011;75295;45.426;9.696;2024-01-15T10:32:07;141.00;;;75.90;;
84982;SDS011;75295;45.426;9.696;2024-01-15T10:34:38;178.57;;;69.57;;
84982;SDS011;75295;45.426;9.696;2024-01-15T10:37:09;151.02;;;77.60;;
84982;SDS011;75295;45.426;9.696;2024-01-15T10:39:36;146.52;;;77.13;;
84982;SDS011;75295;45.426;9.696;2024-01-15T10:42:03;151.90;;;78.78;;
84982;SDS011;75295;45.426;9.696;2024-01-15T10:44:32;157.48;;;84.32;;
84982;SDS011;75295;45.426;9.696;2024-01-15T10:46:58;153.25;;;85.40;;
84982;SDS011;75295;45.426;9.696;2024-01-15T10:49:25;144.88;;;79.70;;
84982;SDS011;75295;45.426;9.696;2024-01-15T10:51:54;132.13;;;79.15;;
84982;SDS011;75295;45.426;9.696;2024-01-15T10:54:22;135.93;;;76.38;;
84982;SDS011;75295;45.426;9.696;2024-01-15T10:56:50;152.27;;;81.22;;
84982;SDS011;75295;45.426;9.696;2024-01-15T10:59:18;145.18;;;68.15;;
84982;SDS011;75295;45.426;9.696;2024-01-15T11:01:48;134.75;;;73.43;;
84982;SDS011;75295;45.426;9.696;2024-01-15T11:04:20;133.15;;;75.10;;
84982;SDS011;75295;45.426;9.696;2024-01-15T11:06:49;155.23;;;76.82;;
84982;SDS011;75295;45.426;9.696;2024-01-15T11:09:19;139.73;;;76.55;;
84982;SDS011;75295;45.426;9.696;2024-01-15T11:11:47;132.00;;;74.60;;
84982;SDS011;75295;45.426;9.696;2024-01-15T11:14:33;119.55;;;70.82;;
84982;SDS011;75295;45.426;9.696;2024-01-15T11:17:01;131.52;;;75.80;;
84982;SDS011;75295;45.426;9.696;2024-01-15T11:24:57;117.20;;;65.65;;
84982;SDS011;75295;45.426;9.696;2024-01-15T11:27:40;111.25;;;66.55;;
84982;SDS011;75295;45.426;9.696;2024-01-15T11:30:13;116.28;;;67.10;;
84982;SDS011;75295;45.426;9.696;2024-01-15T11:32:40;109.15;;;68.07;;
84982;SDS011;75295;45.426;9.696;2024-01-15T11:35:08;109.43;;;67.80;;
84982;SDS011;75295;45.426;9.696;2024-01-15T11:40:19;117.22;;;69.72;;
84982;SDS011;75295;45.426;9.696;2024-01-15T11:42:48;123.13;;;72.18;;
84982;SDS011;75295;45.426;9.696;2024-01-15T11:45:16;122.95;;;73.68;;
84982;SDS011;75295;45.426;9.696;2024-01-15T11:53:31;112.10;;;70.63;;
84982;SDS011;75295;45.426;9.696;2024-01-15T11:56:03;106.35;;;68.20;;
84982;SDS011;75295;45.426;9.696;2024-01-15T11:58:40;110.28;;;69.15;;
84982;SDS011;75295;45.426;9.696;2024-01-15T12:01:07;109.40;;;69.25;;
84982;SDS011;75295;45.426;9.696;2024-01-15T12:03:34;115.30;;;69.00;;
84982;SDS011;75295;45.426;9.696;2024-01-15T12:06:00;116.47;;;72.22;;
84982;SDS011;75295;45.426;9.696;2024-01-15T12:08:27;108.28;;;68.32;;
84982;SDS011;75295;45.426;9.696;2024-01-15T12:10:54;112.20;;;65.72;;
84982;SDS011;75295;45.426;9.696;2024-01-15T12:13:21;104.25;;;66.47;;
84982;SDS011;75295;45.426;9.696;2024-01-15T12:15:48;106.32;;;67.55;;
84982;SDS011;75295;45.426;9.696;2024-01-15T12:18:16;111.28;;;70.45;;
84982;SDS011;75295;45.426;9.696;2024-01-15T12:20:45;106.13;;;64.10;;
84982;SDS011;75295;45.426;9.696;2024-01-15T12:23:15;101.43;;;65.85;;
84982;SDS011;75295;45.426;9.696;2024-01-15T12:25:42;100.45;;;65.15;;
84982;SDS011;75295;45.426;9.696;2024-01-15T12:28:09;97.28;;;63.85;;
84982;SDS011;75295;45.426;9.696;2024-01-15T12:30:36;105.80;;;65.80;;
84982;SDS011;75295;45.426;9.696;2024-01-15T12:33:04;104.15;;;66.72;;
84982;SDS011;75295;45.426;9.696;2024-01-15T12:35:33;97.03;;;66.65;;
84982;SDS011;75295;45.426;9.696;2024-01-15T12:38:00;97.43;;;66.97;;
84982;SDS011;75295;45.426;9.696;2024-01-15T12:40:31;101.18;;;64.30;;
84982;SDS011;75295;45.426;9.696;2024-01-15T12:43:00;99.45;;;64.50;;
84982;SDS011;75295;45.426;9.696;2024-01-15T12:45:27;92.53;;;65.45;;
84982;SDS011;75295;45.426;9.696;2024-01-15T12:47:55;100.55;;;65.88;;
84982;SDS011;75295;45.426;9.696;2024-01-15T12:50:24;94.13;;;63.90;;
84982;SDS011;75295;45.426;9.696;2024-01-15T12:52:52;98.63;;;62.17;;
84982;SDS011;75295;45.426;9.696;2024-01-15T12:55:19;94.95;;;63.47;;
84982;SDS011;75295;45.426;9.696;2024-01-15T12:57:46;90.18;;;63.83;;
84982;SDS011;75295;45.426;9.696;2024-01-15T13:00:13;96.25;;;67.03;;
84982;SDS011;75295;45.426;9.696;2024-01-15T13:02:41;92.53;;;65.50;;
84982;SDS011;75295;45.426;9.696;2024-01-15T13:05:09;99.20;;;66.38;;
84982;SDS011;75295;45.426;9.696;2024-01-15T13:07:39;92.78;;;64.35;;
84982;SDS011;75295;45.426;9.696;2024-01-15T13:10:06;85.68;;;57.95;;
84982;SDS011;75295;45.426;9.696;2024-01-15T13:12:34;81.93;;;55.33;;
84982;SDS011;75295;45.426;9.696;2024-01-15T13:15:02;76.28;;;52.88;;
84982;SDS011;75295;45.426;9.696;2024-01-15T13:17:30;76.22;;;52.53;;
84982;SDS011;75295;45.426;9.696;2024-01-15T13:19:57;73.47;;;50.47;;
84982;SDS011;75295;45.426;9.696;2024-01-15T13:22:24;73.30;;;49.90;;
84982;SDS011;75295;45.426;9.696;2024-01-15T13:24:56;68.20;;;49.28;;
84982;SDS011;75295;45.426;9.696;2024-01-15T13:27:22;73.55;;;50.42;;
84982;SDS011;75295;45.426;9.696;2024-01-15T13:29:49;71.95;;;49.35;;
84982;SDS011;75295;45.426;9.696;2024-01-15T13:32:17;74.82;;;48.58;;
84982;SDS011;75295;45.426;9.696;2024-01-15T13:34:56;72.38;;;48.58;;
84982;SDS011;75295;45.426;9.696;2024-01-15T13:37:23;69.45;;;47.72;;
84982;SDS011;75295;45.426;9.696;2024-01-15T13:39:51;71.05;;;48.83;;
84982;SDS011;75295;45.426;9.696;2024-01-15T13:42:19;71.93;;;49.10;;
84982;SDS011;75295;45.426;9.696;2024-01-15T13:44:50;68.93;;;47.40;;
84982;SDS011;75295;45.426;9.696;2024-01-15T13:47:17;72.15;;;47.25;;
84982;SDS011;75295;45.426;9.696;2024-01-15T13:49:43;70.30;;;48.47;;
84982;SDS011;75295;45.426;9.696;2024-01-15T13:52:10;74.35;;;50.00;;
84982;SDS011;75295;45.426;9.696;2024-01-15T13:54:38;68.63;;;49.08;;
84982;SDS011;75295;45.426;9.696;2024-01-15T13:57:05;71.50;;;47.10;;
84982;SDS011;75295;45.426;9.696;2024-01-15T13:59:32;71.03;;;48.35;;
84982;SDS011;75295;45.426;9.696;2024-01-15T14:01:59;69.47;;;45.67;;
84982;SDS011;75295;45.426;9.696;2024-01-15T14:04:25;63.13;;;44.38;;
84982;SDS011;75295;45.426;9.696;2024-01-15T14:06:52;65.03;;;46.83;;
84982;SDS011;75295;45.426;9.696;2024-01-15T14:09:19;62.42;;;43.33;;
84982;SDS011;75295;45.426;9.696;2024-01-15T14:11:47;63.78;;;42.70;;
84982;SDS011;75295;45.426;9.696;2024-01-15T14:14:15;61.92;;;41.90;;
84982;SDS011;75295;45.426;9.696;2024-01-15T14:16:43;58.28;;;40.33;;
84982;SDS011;75295;45.426;9.696;2024-01-15T14:19:09;59.60;;;40.60;;
84982;SDS011;75295;45.426;9.696;2024-01-15T14:21:36;59.22;;;39.72;;
84982;SDS011;75295;45.426;9.696;2024-01-15T14:24:03;56.38;;;39.72;;
84982;SDS011;75295;45.426;9.696;2024-01-15T14:26:30;58.13;;;40.03;;